Time;durP1;ratioP1;P1;durP2;ratioP2;P2;SDS_P1;SDS_P2;PMS_P1;PMS_P2;Temp;Humidity;BMP_temperature;BMP_pressure;BME280_temperature;BME280_humidity;BME280_pressure;Samples;Min_cycle;Max_cycle;Signal;HPM_P1;HPM_P2
2022/07/11 00:00:00;;;;;;;1999.90;999.90;;;15.10;99.90;;;;;;5049371;28;20458;-68
2022/07/11 00:02:28;;;;;;;1999.90;999.90;;;15.10;99.90;;;;;;5046912;28;20991;-68
2022/07/11 00:04:54;;;;;;;1999.90;999.90;;;15.20;99.90;;;;;;5049341;28;20466;-67
2022/07/11 00:07:22;;;;;;;1999.90;999.90;;;15.20;99.90;;;;;;5048765;28;20478;-68
2022/07/11 00:09:49;;;;;;;1999.90;999.90;;;15.10;99.90;;;;;;5048662;28;21043;-67
2022/07/11 00:12:17;;;;;;;1999.90;999.90;;;15.10;99.90;;;;;;5048078;28;20489;-67
2022/07/11 00:14:44;;;;;;;1999.90;999.90;;;15.20;99.90;;;;;;5048594;28;20458;-67
2022/07/11 00:17:11;;;;;;;1999.90;999.90;;;15.10;99.90;;;;;;5047501;28;20954;-67
2022/07/11 00:19:38;;;;;;;1999.90;999.90;;;15.10;99.90;;;;;;5049994;28;20470;-67
2022/07/11 00:22:06;;;;;;;1999.90;999.90;;;15.10;99.90;;;;;;5047614;28;20486;-67
2022/07/11 00:24:35;;;;;;;1999.90;999.90;;;15.10;99.90;;;;;;5048558;28;20470;-68
2022/07/11 00:27:02;;;;;;;1999.90;999.90;;;15.10;99.90;;;;;;5047469;28;20474;-67
2022/07/11 00:29:29;;;;;;;1999.90;999.90;;;15.10;99.90;;;;;;5049297;28;20458;-67
2022/07/11 00:31:56;;;;;;;1999.90;999.90;;;15.10;99.90;;;;;;5048070;28;20993;-67
2022/07/11 00:34:23;;;;;;;1999.90;999.90;;;15.10;99.90;;;;;;5049377;28;20890;-67
2022/07/11 00:36:49;;;;;;;1999.90;999.90;;;15.10;99.90;;;;;;5049929;28;20466;-67
2022/07/11 00:39:16;;;;;;;1999.90;999.90;;;15.10;99.90;;;;;;5047621;28;20483;-68
2022/07/11 00:41:44;;;;;;;1999.90;999.90;;;15.00;99.90;;;;;;5049161;28;20498;-67
2022/07/11 00:44:13;;;;;;;1999.90;999.90;;;15.00;99.90;;;;;;5048159;28;20488;-67
2022/07/11 00:46:39;;;;;;;1999.90;999.90;;;15.00;99.90;;;;;;5049503;28;20516;-67
2022/07/11 00:49:06;;;;;;;1999.90;999.90;;;15.00;99.90;;;;;;5048650;28;20508;-67
2022/07/11 00:51:32;;;;;;;1999.90;999.90;;;15.00;99.90;;;;;;5047411;28;20486;-67
2022/07/11 00:54:00;;;;;;;1999.90;999.90;;;14.90;99.90;;;;;;5048496;28;21028;-68
2022/07/11 00:56:29;;;;;;;1999.90;999.90;;;14.90;99.90;;;;;;5048908;28;20520;-67
2022/07/11 00:58:58;;;;;;;1999.90;999.90;;;14.80;99.90;;;;;;5047549;28;20513;-67
2022/07/11 01:01:25;;;;;;;1999.90;999.90;;;14.90;99.90;;;;;;5048154;28;20484;-67
2022/07/11 01:03:52;;;;;;;1999.90;999.90;;;14.90;99.90;;;;;;5046169;28;20970;-67
2022/07/11 01:06:19;;;;;;;1999.90;999.90;;;14.90;99.90;;;;;;5047707;28;20467;-68
2022/07/11 01:08:45;;;;;;;1999.90;999.90;;;14.90;99.90;;;;;;5049156;28;20520;-67
2022/07/11 01:11:15;;;;;;;1999.90;999.90;;;14.90;99.90;;;;;;5046600;28;20547;-67
2022/07/11 01:13:42;;;;;;;1999.90;999.90;;;15.00;99.90;;;;;;5043178;28;20557;-67
2022/07/11 01:16:13;;;;;;;1999.90;999.90;;;14.90;99.90;;;;;;5047746;28;20458;-67
2022/07/11 01:18:41;;;;;;;1999.90;999.90;;;14.90;99.90;;;;;;5048609;28;20477;-67
2022/07/11 01:21:20;;;;;;;1999.90;999.90;;;14.90;99.90;;;;;;5046018;28;20567;-68
2022/07/11 01:23:49;;;;;;;1999.90;999.90;;;15.00;99.90;;;;;;5047495;28;20462;-67
2022/07/11 01:26:17;;;;;;;1999.90;999.90;;;14.90;99.90;;;;;;5044610;28;20450;-67
2022/07/11 01:28:44;;;;;;;1999.90;999.90;;;14.90;99.90;;;;;;5043284;28;20468;-67
2022/07/11 01:31:11;;;;;;;1999.90;999.90;;;14.90;99.90;;;;;;5046634;28;20577;-67
2022/07/11 01:33:38;;;;;;;1999.90;999.90;;;14.90;99.90;;;;;;5047249;28;20462;-67
2022/07/11 01:36:05;;;;;;;1999.90;999.90;;;14.90;99.90;;;;;;5047692;28;20512;-67
2022/07/11 01:38:32;;;;;;;1999.90;999.90;;;14.90;99.90;;;;;;5046739;28;20518;-67
2022/07/11 01:41:00;;;;;;;1999.90;999.90;;;14.90;99.90;;;;;;5048222;28;20513;-67
2022/07/11 01:43:27;;;;;;;1999.90;999.90;;;14.80;99.90;;;;;;5047865;28;20458;-67
2022/07/11 01:45:54;;;;;;;1999.90;999.90;;;14.90;99.90;;;;;;5049408;28;20458;-67
2022/07/11 01:48:21;;;;;;;1999.90;999.90;;;14.80;99.90;;;;;;5046699;28;20516;-67
2022/07/11 01:50:48;;;;;;;1999.90;999.90;;;14.80;99.90;;;;;;5046082;28;20464;-67
2022/07/11 01:53:15;;;;;;;1999.90;999.90;;;14.90;99.90;;;;;;5047404;28;20461;-68
2022/07/11 01:55:42;;;;;;;1999.90;999.90;;;14.90;99.90;;;;;;5046842;28;20466;-68
2022/07/11 01:58:10;;;;;;;1999.90;999.90;;;14.80;99.90;;;;;;5047783;28;20481;-67
2022/07/11 02:00:37;;;;;;;1999.90;999.90;;;14.80;99.90;;;;;;5046459;28;20508;-67
2022/07/11 02:03:04;;;;;;;1999.90;999.90;;;14.80;99.90;;;;;;5046066;28;20466;-68
2022/07/11 02:05:31;;;;;;;1999.90;999.90;;;14.80;99.90;;;;;;5047193;28;20984;-67
2022/07/11 02:08:12;;;;;;;1999.90;999.90;;;14.80;99.90;;;;;;5047500;28;20458;-67
2022/07/11 02:10:40;;;;;;;1999.90;999.90;;;14.70;99.90;;;;;;5047825;28;20458;-67
2022/07/11 02:13:06;;;;;;;1999.90;999.90;;;14.70;99.90;;;;;;5047547;28;20508;-67
2022/07/11 02:15:34;;;;;;;1999.90;999.90;;;14.80;99.90;;;;;;5049777;28;20458;-67
2022/07/11 02:18:01;;;;;;;1999.90;999.90;;;14.80;99.90;;;;;;5053168;28;20478;-66
2022/07/11 02:20:28;;;;;;;1999.90;999.90;;;14.70;99.90;;;;;;5056217;28;20481;-67
2022/07/11 02:22:56;;;;;;;1999.90;999.90;;;14.60;99.90;;;;;;5053324;28;20560;-67
2022/07/11 02:25:23;;;;;;;1999.90;999.90;;;14.60;99.90;;;;;;5050919;28;20494;-67
2022/07/11 02:27:50;;;;;;;1999.90;999.90;;;14.60;99.90;;;;;;5050457;28;20471;-67
2022/07/11 02:30:16;;;;;;;1999.90;999.90;;;14.50;99.90;;;;;;5050617;28;20844;-67
2022/07/11 02:32:44;;;;;;;1999.90;999.90;;;14.50;99.90;;;;;;5051900;28;20485;-67
2022/07/11 02:35:11;;;;;;;1999.90;999.90;;;14.50;99.90;;;;;;5051600;28;20488;-66
2022/07/11 02:37:37;;;;;;;1999.90;999.90;;;14.40;99.90;;;;;;5051177;28;20541;-66
2022/07/11 02:40:05;;;;;;;1999.90;999.90;;;14.40;99.90;;;;;;5045455;28;20568;-69
2022/07/11 02:42:33;;;;;;;1999.90;999.90;;;14.40;99.90;;;;;;5050237;28;20497;-66
2022/07/11 02:44:59;;;;;;;1999.90;999.90;;;14.40;99.90;;;;;;5050466;28;20458;-66
2022/07/11 02:47:26;;;;;;;1999.90;999.90;;;14.40;99.90;;;;;;5051248;28;20537;-67
2022/07/11 02:49:54;;;;;;;1999.90;999.90;;;14.30;99.90;;;;;;5050822;28;20455;-66
2022/07/11 02:52:20;;;;;;;1999.90;999.90;;;14.40;99.90;;;;;;5048708;28;20486;-67
2022/07/11 02:54:47;;;;;;;1999.90;999.90;;;14.30;99.90;;;;;;5050805;28;20834;-67
2022/07/11 02:57:14;;;;;;;1999.90;999.90;;;14.30;99.90;;;;;;5049597;28;20533;-67
2022/07/11 02:59:40;;;;;;;1999.90;999.90;;;14.30;99.90;;;;;;5051647;28;20482;-66
2022/07/11 03:02:07;;;;;;;1999.90;999.90;;;14.30;99.90;;;;;;5048460;28;20485;-67
2022/07/11 03:04:34;;;;;;;1999.90;999.90;;;14.30;99.90;;;;;;5051441;28;20462;-67
2022/07/11 03:07:02;;;;;;;1999.90;999.90;;;14.30;99.90;;;;;;5051433;28;20462;-67
2022/07/11 03:09:28;;;;;;;1999.90;999.90;;;14.30;99.90;;;;;;5051093;28;20455;-67
2022/07/11 03:11:55;;;;;;;1999.90;999.90;;;14.40;99.90;;;;;;5050773;28;20482;-67
2022/07/11 03:14:21;;;;;;;1999.90;999.90;;;14.40;99.90;;;;;;5048055;28;20474;-67
2022/07/11 03:16:48;;;;;;;1999.90;999.90;;;14.40;99.90;;;;;;5051146;28;20512;-68
2022/07/11 03:19:15;;;;;;;1999.90;999.90;;;14.40;99.90;;;;;;5049844;28;20572;-67
2022/07/11 03:21:41;;;;;;;1999.90;999.90;;;14.40;99.90;;;;;;5051220;28;20837;-66
2022/07/11 03:24:09;;;;;;;1999.90;999.90;;;14.40;99.90;;;;;;5049268;28;20516;-67
2022/07/11 03:26:36;;;;;;;1999.90;999.90;;;14.50;99.90;;;;;;5049251;28;20520;-67
2022/07/11 03:29:02;;;;;;;1999.90;999.90;;;14.50;99.90;;;;;;5049769;28;20516;-67
2022/07/11 03:31:29;;;;;;;1999.90;999.90;;;14.60;99.90;;;;;;5050365;28;20482;-66
2022/07/11 03:33:56;;;;;;;1999.90;999.90;;;14.70;99.90;;;;;;5049666;28;20466;-67
2022/07/11 03:36:22;;;;;;;1999.90;999.90;;;14.70;99.90;;;;;;5049945;28;20470;-67
2022/07/11 03:38:49;;;;;;;1999.90;999.90;;;14.70;99.90;;;;;;5049614;28;20486;-67
2022/07/11 03:41:17;;;;;;;1999.90;999.90;;;14.70;99.90;;;;;;5048549;28;20494;-67
2022/07/11 03:43:44;;;;;;;1999.90;999.90;;;14.70;99.90;;;;;;5048464;28;20535;-67
2022/07/11 03:46:10;;;;;;;1999.90;999.90;;;14.70;99.90;;;;;;5050178;28;20516;-67
2022/07/11 03:48:37;;;;;;;1999.90;999.90;;;14.70;99.90;;;;;;5049617;28;20463;-67
2022/07/11 03:51:03;;;;;;;1999.90;999.90;;;14.70;99.90;;;;;;5049449;28;20482;-67
2022/07/11 03:53:30;;;;;;;1999.90;999.90;;;14.80;99.90;;;;;;5048697;28;20885;-67
2022/07/11 03:55:57;;;;;;;1999.90;999.90;;;14.80;99.90;;;;;;5050770;28;20516;-67
2022/07/11 03:58:24;;;;;;;1999.90;999.90;;;14.70;99.90;;;;;;5049371;28;20458;-67
2022/07/11 04:00:51;;;;;;;1999.90;999.90;;;14.80;99.90;;;;;;5050569;28;20884;-67
2022/07/11 04:03:18;;;;;;;1999.90;999.90;;;14.90;99.90;;;;;;5048486;28;20486;-67
2022/07/11 04:05:44;;;;;;;1999.90;999.90;;;14.90;99.90;;;;;;5050040;28;20466;-67
2022/07/11 04:08:11;;;;;;;1999.90;999.90;;;14.80;99.90;;;;;;5049428;28;20466;-68
2022/07/11 04:10:37;;;;;;;1999.90;999.90;;;14.80;99.90;;;;;;5049691;28;20536;-67
2022/07/11 04:13:04;;;;;;;1999.90;999.90;;;14.90;99.90;;;;;;5049238;28;20462;-67
2022/07/11 04:15:32;;;;;;;1999.90;999.90;;;15.00;99.90;;;;;;5049362;28;20496;-67
2022/07/11 04:17:59;;;;;;;1999.90;999.90;;;15.20;99.90;;;;;;5050170;28;20496;-67
2022/07/11 04:20:25;;;;;;;1999.90;999.90;;;15.30;99.90;;;;;;5048585;28;20615;-67
2022/07/11 04:22:52;;;;;;;1999.90;999.90;;;15.40;99.90;;;;;;5049868;28;20482;-66
2022/07/11 04:25:19;;;;;;;1999.90;999.90;;;15.40;99.90;;;;;;5047176;28;20458;-67
2022/07/11 04:27:45;;;;;;;1999.90;999.90;;;15.30;99.90;;;;;;5049132;28;20496;-67
2022/07/11 04:30:12;;;;;;;1999.90;999.90;;;15.30;99.90;;;;;;5047361;28;20504;-67
2022/07/11 04:32:40;;;;;;;1999.90;999.90;;;15.20;99.90;;;;;;5048636;28;20532;-67
2022/07/11 04:35:07;;;;;;;1999.90;999.90;;;15.30;99.90;;;;;;5049532;28;20458;-67
2022/07/11 04:37:34;;;;;;;1999.90;999.90;;;15.30;99.90;;;;;;5045985;28;20459;-67
2022/07/11 04:40:00;;;;;;;1999.90;999.90;;;15.40;99.90;;;;;;5048471;28;20474;-66
2022/07/11 04:42:27;;;;;;;1999.90;999.90;;;15.40;99.90;;;;;;5048110;28;20522;-69
2022/07/11 04:44:54;;;;;;;1999.90;999.90;;;15.30;99.90;;;;;;5053009;22;21003;-73
2022/07/11 04:47:20;;;;;;;1999.90;999.90;;;15.30;99.90;;;;;;5029336;28;20459;-73
2022/07/11 04:49:50;;;;;;;1999.90;999.90;;;15.40;99.90;;;;;;5029695;28;20483;-73
2022/07/11 04:52:17;;;;;;;1999.90;999.90;;;15.30;99.90;;;;;;5029563;28;20455;-73
2022/07/11 04:54:43;;;;;;;1999.90;999.90;;;15.50;99.90;;;;;;5030242;28;20532;-74
2022/07/11 04:57:11;;;;;;;1999.90;999.90;;;15.60;99.90;;;;;;5029373;28;20523;-72
2022/07/11 04:59:38;;;;;;;1999.90;999.90;;;15.90;99.90;;;;;;5029620;28;20490;-74
2022/07/11 05:02:05;;;;;;;1999.90;999.90;;;16.20;99.90;;;;;;5028150;28;21031;-74
2022/07/11 05:04:32;;;;;;;1999.90;999.90;;;16.40;99.90;;;;;;5028967;28;20566;-74
2022/07/11 05:07:00;;;;;;;1999.90;999.90;;;16.80;99.90;;;;;;5029589;28;20513;-74
2022/07/11 05:09:26;;;;;;;1999.90;999.90;;;16.90;99.90;;;;;;5025028;28;20463;-74
2022/07/11 05:11:53;;;;;;;1999.90;999.90;;;16.90;99.90;;;;;;5029760;28;20463;-74
2022/07/11 05:14:20;;;;;;;1999.90;999.90;;;16.70;99.90;;;;;;5028831;28;20510;-73
2022/07/11 05:16:46;;;;;;;1999.90;999.90;;;16.60;99.90;;;;;;5021991;28;20534;-73
2022/07/11 05:19:13;;;;;;;1999.90;999.90;;;16.50;99.90;;;;;;5027549;28;20529;-70
2022/07/11 05:21:40;;;;;;;1999.90;999.90;;;16.50;99.90;;;;;;5025967;28;20463;-71
2022/07/11 05:24:08;;;;;;;1999.90;999.90;;;16.50;99.90;;;;;;5030066;28;20999;-74
2022/07/11 05:26:34;;;;;;;1999.90;999.90;;;16.70;99.90;;;;;;5030133;28;20724;-73
2022/07/11 05:29:01;;;;;;;1999.90;999.90;;;16.70;99.90;;;;;;5029825;28;20947;-74
2022/07/11 05:31:28;;;;;;;1999.90;999.90;;;16.60;99.90;;;;;;5028672;28;20459;-72
2022/07/11 05:33:54;;;;;;;1999.90;999.90;;;16.60;99.90;;;;;;5029567;28;20486;-72
2022/07/11 05:36:21;;;;;;;1999.90;999.90;;;16.50;99.90;;;;;;5030192;28;20463;-74
2022/07/11 05:38:48;;;;;;;1999.90;999.90;;;16.40;99.90;;;;;;5029124;28;21036;-74
2022/07/11 05:41:16;;;;;;;1999.90;999.90;;;16.20;99.90;;;;;;5029252;28;20843;-73
2022/07/11 05:43:42;;;;;;;1999.90;999.90;;;16.10;99.90;;;;;;5028588;28;20521;-74
2022/07/11 05:46:09;;;;;;;1999.90;999.90;;;15.90;99.90;;;;;;5024929;28;20513;-74
2022/07/11 05:48:35;;;;;;;1999.90;999.90;;;16.30;99.90;;;;;;5029940;28;20537;-74
2022/07/11 05:51:02;;;;;;;1999.90;999.90;;;16.60;99.90;;;;;;5032769;28;20451;-72
2022/07/11 05:53:28;;;;;;;1999.90;999.90;;;16.80;99.90;;;;;;5033073;28;20478;-74
2022/07/11 05:55:55;;;;;;;1999.90;999.90;;;16.90;99.90;;;;;;5031222;28;21483;-70
2022/07/11 05:58:23;;;;;;;1999.90;999.90;;;16.60;99.90;;;;;;5025845;28;20540;-70
2022/07/11 06:00:49;;;;;;;1999.90;999.90;;;16.40;99.90;;;;;;5025882;28;20523;-73
2022/07/11 06:03:16;;;;;;;1999.90;999.90;;;16.30;99.90;;;;;;5029352;28;20528;-73
2022/07/11 06:05:43;;;;;;;1999.90;999.90;;;16.30;99.90;;;;;;5033187;28;20470;-74
2022/07/11 06:11:02;;;;;;;1999.90;999.90;;;16.90;99.90;;;;;;4996463;28;20593;-74
2022/07/11 06:13:30;;;;;;;1999.90;999.90;;;16.90;99.90;;;;;;5032396;28;20994;-74
2022/07/11 06:15:57;;;;;;;1999.90;999.90;;;17.30;99.90;;;;;;5033096;28;20459;-74
2022/07/11 06:18:24;;;;;;;1999.90;999.90;;;17.70;99.90;;;;;;5029272;28;20517;-74
2022/07/11 06:20:50;;;;;;;1999.90;999.90;;;17.90;99.90;;;;;;5034925;28;20513;-74
2022/07/11 06:23:18;;;;;;;1999.90;999.90;;;17.90;99.90;;;;;;5032875;28;21082;-73
2022/07/11 06:25:45;;;;;;;1999.90;999.90;;;17.60;99.90;;;;;;5030129;28;20459;-73
2022/07/11 06:28:11;;;;;;;1999.90;999.90;;;17.40;99.90;;;;;;5029506;28;20459;-73
2022/07/11 06:30:39;;;;;;;1999.90;999.90;;;17.60;99.90;;;;;;5029004;28;20466;-73
2022/07/11 06:33:06;;;;;;;1999.90;999.90;;;17.70;99.90;;;;;;5030020;28;21016;-72
2022/07/11 06:35:34;;;;;;;1999.90;999.90;;;17.80;99.90;;;;;;5026597;28;20475;-74
2022/07/11 06:38:00;;;;;;;1999.90;999.90;;;18.00;99.90;;;;;;5029200;28;20466;-74
2022/07/11 06:40:27;;;;;;;1999.90;999.90;;;18.50;99.90;;;;;;5030091;28;20474;-72
2022/07/11 06:42:54;;;;;;;1999.90;999.90;;;18.90;99.90;;;;;;5029642;28;20471;-74
2022/07/11 06:45:20;;;;;;;1999.90;999.90;;;19.20;99.90;;;;;;5033330;28;21041;-73
2022/07/11 06:47:48;;;;;;;1999.90;999.90;;;19.30;99.90;;;;;;5029058;28;20454;-73
2022/07/11 06:50:15;;;;;;;1999.90;999.90;;;18.90;99.90;;;;;;5027470;28;20464;-71
2022/07/11 06:52:42;;;;;;;1999.90;999.90;;;18.90;99.90;;;;;;5027831;28;20568;-71
2022/07/11 06:55:08;;;;;;;1999.90;999.90;;;19.00;99.90;;;;;;5030386;28;20479;-73
2022/07/11 06:57:35;;;;;;;1999.90;999.90;;;19.10;99.90;;;;;;5027896;28;20544;-74
2022/07/11 07:00:02;;;;;;;1999.90;999.90;;;18.80;99.90;;;;;;5025324;28;20510;-71
2022/07/11 07:02:30;;;;;;;1999.90;999.90;;;18.50;99.90;;;;;;5024836;28;20822;-73
2022/07/11 07:04:58;;;;;;;1999.90;999.90;;;18.30;99.90;;;;;;5027263;28;20541;-71
2022/07/11 07:07:25;;;;;;;1999.90;999.90;;;18.20;99.90;;;;;;5026981;28;20459;-73
2022/07/11 07:09:52;;;;;;;1999.90;999.90;;;18.10;99.90;;;;;;5028512;28;20463;-73
2022/07/11 07:12:19;;;;;;;1999.90;999.90;;;17.90;99.90;;;;;;5025173;28;20459;-73
2022/07/11 07:14:45;;;;;;;1999.90;999.90;;;17.90;99.90;;;;;;5027341;28;20542;-74
2022/07/11 07:17:12;;;;;;;1999.90;999.90;;;18.10;99.90;;;;;;5026500;28;20924;-72
2022/07/11 07:19:38;;;;;;;1999.90;999.90;;;18.50;99.90;;;;;;5025054;28;20546;-74
2022/07/11 07:22:08;;;;;;;1999.90;999.90;;;18.70;99.90;;;;;;5030014;28;20459;-71
2022/07/11 07:24:34;;;;;;;1999.90;999.90;;;18.50;99.90;;;;;;5030928;28;20533;-73
2022/07/11 07:27:01;;;;;;;1999.90;999.90;;;18.30;99.90;;;;;;5030636;28;20463;-72
2022/07/11 07:29:28;;;;;;;1999.90;999.90;;;18.20;99.90;;;;;;5029346;28;20463;-72
2022/07/11 07:31:54;;;;;;;1999.90;999.90;;;18.20;99.90;;;;;;5027224;28;20513;-73
2022/07/11 07:34:22;;;;;;;1999.90;999.90;;;18.20;99.90;;;;;;5027705;28;21008;-74
2022/07/11 07:36:49;;;;;;;1999.90;999.90;;;18.30;99.90;;;;;;5030584;28;20464;-74
2022/07/11 07:39:16;;;;;;;1999.90;999.90;;;18.40;99.90;;;;;;5031373;28;20467;-74
2022/07/11 07:41:43;;;;;;;1999.90;999.90;;;18.40;99.90;;;;;;5030082;28;21061;-73
2022/07/11 07:44:10;;;;;;;1999.90;999.90;;;18.60;99.90;;;;;;5030758;28;20548;-73
2022/07/11 07:46:37;;;;;;;1999.90;999.90;;;18.70;99.90;;;;;;5029871;28;20987;-74
2022/07/11 07:49:03;;;;;;;1999.90;999.90;;;18.70;99.90;;;;;;5029938;28;20463;-73
2022/07/11 07:51:30;;;;;;;1999.90;999.90;;;18.70;99.90;;;;;;5028258;28;20529;-73
2022/07/11 07:53:57;;;;;;;1999.90;999.90;;;18.80;99.90;;;;;;5031672;28;20478;-73
2022/07/11 07:56:25;;;;;;;1999.90;999.90;;;19.00;99.90;;;;;;5029885;28;20463;-72
2022/07/11 07:58:52;;;;;;;1999.90;999.90;;;19.00;99.90;;;;;;5030738;28;20525;-74
2022/07/11 08:01:38;;;;;;;1999.90;999.90;;;19.00;99.90;;;;;;5030485;28;20482;-73
2022/07/11 08:04:06;;;;;;;1999.90;999.90;;;18.90;99.90;;;;;;5031096;28;20487;-73
2022/07/11 08:06:34;;;;;;;1999.90;999.90;;;18.80;99.90;;;;;;5023798;28;20460;-74
2022/07/11 08:09:01;;;;;;;1999.90;999.90;;;18.50;99.90;;;;;;5031297;28;20469;-74
2022/07/11 08:11:30;;;;;;;1999.90;999.90;;;18.50;99.90;;;;;;5028687;28;20525;-74
2022/07/11 08:13:57;;;;;;;1999.90;999.90;;;18.50;99.90;;;;;;5029454;28;20482;-73
2022/07/11 08:16:24;;;;;;;1999.90;999.90;;;18.70;99.90;;;;;;5028696;28;20467;-72
2022/07/11 08:18:53;;;;;;;1999.90;999.90;;;18.80;99.90;;;;;;5029061;28;20459;-74
2022/07/11 08:21:19;;;;;;;1999.90;999.90;;;19.10;99.90;;;;;;5032826;28;20494;-73
2022/07/11 08:23:46;;;;;;;1999.90;999.90;;;19.20;99.90;;;;;;5029197;28;20487;-74
2022/07/11 08:26:12;;;;;;;1999.90;999.90;;;19.00;99.90;;;;;;5028348;28;20947;-74
2022/07/11 08:28:40;;;;;;;1999.90;999.90;;;18.60;99.90;;;;;;5026893;28;20537;-74
2022/07/11 08:31:08;;;;;;;1999.90;999.90;;;18.60;99.90;;;;;;5029109;28;20451;-74
2022/07/11 08:33:34;;;;;;;1999.90;999.90;;;18.60;99.90;;;;;;5027267;28;20479;-71
2022/07/11 08:36:01;;;;;;;1999.90;999.90;;;18.60;99.90;;;;;;5028668;28;20459;-75
2022/07/11 08:38:28;;;;;;;1999.90;999.90;;;18.70;99.90;;;;;;5026433;28;20947;-71
2022/07/11 08:40:54;;;;;;;1999.90;999.90;;;18.70;99.90;;;;;;5026851;28;20601;-74
2022/07/11 08:43:27;;;;;;;1999.90;999.90;;;18.60;99.90;;;;;;5026107;28;20517;-71
2022/07/11 08:45:55;;;;;;;1999.90;999.90;;;18.50;99.90;;;;;;5028837;28;20967;-74
2022/07/11 08:48:23;;;;;;;1999.90;999.90;;;18.60;99.90;;;;;;5026689;28;21017;-71
2022/07/11 08:50:50;;;;;;;1999.90;999.90;;;18.80;99.90;;;;;;5027690;28;20963;-74
2022/07/11 08:53:17;;;;;;;1999.90;999.90;;;19.00;99.90;;;;;;5027387;28;20520;-73
2022/07/11 08:55:44;;;;;;;1999.90;999.90;;;19.40;99.90;;;;;;5028106;28;20463;-74
2022/07/11 08:58:11;;;;;;;1999.90;999.90;;;19.90;99.90;;;;;;5026104;28;20892;-74
2022/07/11 09:00:38;;;;;;;1999.90;999.90;;;20.40;99.90;;;;;;5027276;28;20482;-74
2022/07/11 09:03:07;;;;;;;1999.90;999.90;;;20.80;99.90;;;;;;5026977;28;20913;-74
2022/07/11 09:05:34;;;;;;;1999.90;999.90;;;21.20;99.90;;;;;;5025135;28;20464;-72
2022/07/11 09:08:00;;;;;;;1999.90;999.90;;;21.20;99.90;;;;;;5029182;28;20459;-73
2022/07/11 09:10:27;;;;;;;1999.90;999.90;;;20.60;99.90;;;;;;5027479;28;20451;-72
2022/07/11 09:13:05;;;;;;;1999.90;999.90;;;20.30;99.90;;;;;;5029389;28;20459;-72
2022/07/11 09:15:37;;;;;;;1999.90;999.90;;;20.20;99.90;;;;;;5028533;28;20467;-73
2022/07/11 09:18:06;;;;;;;1999.90;999.90;;;20.60;99.90;;;;;;5027613;28;20513;-72
2022/07/11 09:26:21;;;;;;;1999.90;999.90;;;20.20;99.90;;;;;;5026345;28;20459;-73
2022/07/11 09:28:59;;;;;;;1999.90;999.90;;;20.60;99.90;;;;;;5029159;28;20529;-74
2022/07/11 09:31:28;;;;;;;1999.90;999.90;;;21.10;99.90;;;;;;5024390;28;20455;-73
2022/07/11 09:34:01;;;;;;;1999.90;999.90;;;21.40;99.90;;;;;;5025573;28;20485;-73
2022/07/11 09:36:41;;;;;;;1999.90;999.90;;;21.30;99.90;;;;;;5026451;28;20490;-72
2022/07/11 09:39:10;;;;;;;1999.90;999.90;;;20.80;99.90;;;;;;5029003;28;20519;-73
2022/07/11 09:41:38;;;;;;;1999.90;999.90;;;20.80;99.90;;;;;;5029115;28;20483;-73
2022/07/11 09:44:09;;;;;;;1999.90;999.90;;;20.90;99.90;;;;;;5026969;28;21002;-73
2022/07/11 09:46:36;;;;;;;1999.90;999.90;;;20.90;99.90;;;;;;5024995;28;20463;-74
2022/07/11 09:49:05;;;;;;;1999.90;999.90;;;21.20;99.90;;;;;;5026360;28;20463;-74
2022/07/11 09:51:33;;;;;;;1999.90;999.90;;;21.20;99.90;;;;;;5023885;28;20464;-73
2022/07/11 09:54:00;;;;;;;1999.90;999.90;;;21.40;99.90;;;;;;5025245;28;20482;-74
2022/07/11 09:56:32;;;;;;;1999.90;999.90;;;21.70;99.90;;;;;;5028897;28;20471;-72
2022/07/11 09:59:01;;;;;;;1999.90;999.90;;;21.70;99.60;;;;;;5025297;28;20463;-73
2022/07/11 10:01:28;;;;;;;1999.90;999.90;;;21.40;99.30;;;;;;5024418;28;20611;-71
2022/07/11 10:03:54;;;;;;;1999.90;999.90;;;21.40;98.60;;;;;;5026627;28;20534;-73
2022/07/11 10:06:22;;;;;;;1999.90;999.90;;;21.40;99.20;;;;;;5023943;28;20458;-74
2022/07/11 10:08:49;;;;;;;1999.90;999.90;;;21.50;99.10;;;;;;5026791;28;20486;-73
2022/07/11 10:11:16;;;;;;;1999.90;999.90;;;21.70;98.20;;;;;;5027314;28;20525;-74
2022/07/11 10:13:43;;;;;;;1999.90;999.90;;;21.80;98.80;;;;;;5024476;28;20487;-73
2022/07/11 10:16:21;;;;;;;1999.90;999.90;;;21.90;98.60;;;;;;5023469;28;20517;-73
2022/07/11 10:18:55;;;;;;;1999.90;999.90;;;21.50;98.20;;;;;;5026696;28;20444;-74
2022/07/11 10:21:30;;;;;;;1999.90;999.90;;;21.20;99.00;;;;;;5029273;28;20521;-74
2022/07/11 10:24:02;;;;;;;1999.90;999.90;;;21.40;98.40;;;;;;5028255;28;21066;-73
2022/07/11 10:26:37;;;;;;;1999.90;999.90;;;21.60;97.10;;;;;;5027659;28;20501;-74
2022/07/11 10:29:06;;;;;;;1999.90;999.90;;;21.90;97.30;;;;;;5026929;28;20958;-73
2022/07/11 10:31:34;;;;;;;1999.90;999.90;;;22.10;96.30;;;;;;5022374;28;20499;-72
2022/07/11 10:34:02;;;;;;;1999.90;999.90;;;21.90;97.30;;;;;;5025118;28;20486;-74
2022/07/11 10:36:31;;;;;;;1999.90;999.90;;;21.60;98.90;;;;;;5025178;28;20512;-72
2022/07/11 10:39:16;;;;;;;1999.90;999.90;;;21.50;99.20;;;;;;5032899;28;20509;-73
2022/07/11 10:41:42;;;;;;;1999.90;999.90;;;21.70;99.90;;;;;;5028912;28;20506;-75
2022/07/11 10:44:09;;;;;;;1999.90;999.90;;;22.30;99.50;;;;;;5055041;22;20521;-67
2022/07/11 10:46:36;;;;;;;1999.90;999.90;;;23.00;97.10;;;;;;5048769;28;20474;-70
2022/07/11 10:49:17;;;;;;;1999.90;999.90;;;23.20;95.70;;;;;;5053762;28;20446;-70
2022/07/11 10:51:52;;;;;;;1999.90;999.90;;;22.50;97.00;;;;;;5034511;28;20442;-72
2022/07/11 10:54:29;;;;;;;1999.90;999.90;;;22.20;98.60;;;;;;5034008;28;20963;-69
2022/07/11 10:57:13;;;;;;;1999.90;999.90;;;21.70;99.50;;;;;;5049093;28;20451;-68
2022/07/11 10:59:55;;;;;;;1999.90;999.90;;;21.10;99.90;;;;;;5036406;28;20451;-70
2022/07/11 11:02:22;;;;;;;1999.90;999.90;;;21.50;99.90;;;;;;5036235;28;20479;-69
2022/07/11 11:04:51;;;;;;;1999.90;999.90;;;22.10;99.90;;;;;;5039019;28;20486;-71
2022/07/11 11:07:49;;;;;;;1999.90;999.90;;;22.90;99.20;;;;;;5052349;28;20470;-68
2022/07/11 11:10:50;;;;;;;1999.90;999.90;;;23.30;97.50;;;;;;5048264;28;20460;-68
2022/07/11 11:13:19;;;;;;;1999.90;999.90;;;23.30;97.90;;;;;;5047943;28;20978;-69
2022/07/11 11:15:48;;;;;;;1999.90;999.90;;;23.00;97.90;;;;;;5048621;28;21044;-69
2022/07/11 11:18:48;;;;;;;1999.90;999.90;;;22.50;98.70;;;;;;5049904;28;20462;-70
2022/07/11 11:21:27;;;;;;;1999.90;999.90;;;22.40;98.00;;;;;;4984235;28;20543;-69
2022/07/11 11:24:11;;;;;;;1999.90;999.90;;;21.90;98.90;;;;;;4986726;28;20624;-70
2022/07/11 11:26:47;;;;;;;1999.90;999.90;;;21.60;99.80;;;;;;5024993;28;20989;-69
2022/07/11 11:29:19;;;;;;;1999.90;999.90;;;21.70;99.90;;;;;;5049758;28;20488;-70
2022/07/11 11:31:50;;;;;;;1999.90;999.90;;;22.20;99.60;;;;;;5047031;28;20450;-70
2022/07/11 11:34:18;;;;;;;1999.90;999.90;;;22.90;98.20;;;;;;5048350;28;20464;-69
2022/07/11 11:36:44;;;;;;;1999.90;999.90;;;23.00;97.30;;;;;;5047012;28;20458;-70
2022/07/11 11:39:22;;;;;;;1999.90;999.90;;;22.60;99.70;;;;;;5053617;28;20438;-68
2022/07/11 11:41:49;;;;;;;1999.90;999.90;;;21.60;99.90;;;;;;5039767;28;20544;-68
2022/07/11 11:44:15;;;;;;;1999.90;999.90;;;21.20;99.90;;;;;;5052006;28;20458;-69
2022/07/11 11:46:42;;;;;;;1999.90;999.90;;;21.30;99.90;;;;;;5052909;28;20442;-71
2022/07/11 11:49:09;;;;;;;1999.90;999.90;;;21.80;99.90;;;;;;5053322;28;20492;-70
2022/07/11 11:51:36;;;;;;;1999.90;999.90;;;22.20;99.90;;;;;;5051835;28;20460;-70
2022/07/11 11:54:04;;;;;;;1999.90;999.90;;;22.20;99.90;;;;;;5052817;28;20454;-70
2022/07/11 11:56:33;;;;;;;1999.90;999.90;;;22.30;99.90;;;;;;5053167;28;20549;-70
2022/07/11 11:59:01;;;;;;;1999.90;999.90;;;22.50;99.90;;;;;;5053688;28;20823;-70
2022/07/11 12:01:29;;;;;;;1999.90;999.90;;;22.90;99.20;;;;;;5050140;28;20532;-70
2022/07/11 12:03:57;;;;;;;1999.90;999.90;;;23.00;97.50;;;;;;5050093;28;20466;-68
2022/07/11 12:06:26;;;;;;;1999.90;999.90;;;23.40;97.70;;;;;;5052899;28;20462;-68
2022/07/11 12:08:53;;;;;;;1999.90;999.90;;;23.30;98.00;;;;;;5052945;28;20903;-70
2022/07/11 12:11:20;;;;;;;1999.90;999.90;;;22.70;98.90;;;;;;5052070;28;20845;-68